createdAt,value
2019-05-03T00:02:34.269Z,17.60
2019-05-03T00:03:42.532Z,15.43
2019-05-03T00:04:51.638Z,14.73
2019-05-03T00:06:02.575Z,18.70
2019-05-03T00:07:11.694Z,14.93
2019-05-03T00:08:18.708Z,17.47
2019-05-03T00:09:25.963Z,18.07
2019-05-03T00:10:33.276Z,18.80
2019-05-03T00:11:42.183Z,17.77
2019-05-03T00:12:49.443Z,19.10
2019-05-03T00:13:56.668Z,16.13
2019-05-03T00:15:15.006Z,17.17
2019-05-03T00:16:27.231Z,16.97
2019-05-03T00:17:34.456Z,16.77
2019-05-03T00:18:42.175Z,17.63
2019-05-03T00:19:49.627Z,17.10
2019-05-03T00:20:56.941Z,16.90
2019-05-03T00:22:04.694Z,16.87
2019-05-03T00:23:12.148Z,17.90
2019-05-03T00:24:19.447Z,18.00
2019-05-03T00:25:26.779Z,16.80
2019-05-03T00:26:34.061Z,18.03
2019-05-03T00:27:42.793Z,17.03
2019-05-03T00:28:51.888Z,16.93
2019-05-03T00:29:59.052Z,15.77
2019-05-03T00:31:06.367Z,17.87
2019-05-03T00:32:13.595Z,16.23
2019-05-03T00:33:22.479Z,18.13
2019-05-03T00:34:35.082Z,18.60
2019-05-03T00:35:54.232Z,17.37
2019-05-03T00:37:03.231Z,16.07
2019-05-03T00:38:12.334Z,17.00
2019-05-03T00:39:27.500Z,16.90
2019-05-03T00:40:34.692Z,17.20
2019-05-03T00:41:42.575Z,17.27
2019-05-03T00:42:51.694Z,17.13
2019-05-03T00:43:58.765Z,17.63
2019-05-03T00:45:06.954Z,18.87
2019-05-03T00:46:14.175Z,17.63
2019-05-03T00:47:22.220Z,20.03
2019-05-03T00:48:29.513Z,18.23
2019-05-03T00:49:37.333Z,18.17
2019-05-03T00:50:44.710Z,16.00
2019-05-03T00:51:52.132Z,18.83
2019-05-03T00:52:59.381Z,17.33
2019-05-03T00:54:06.633Z,20.13
2019-05-03T00:55:16.936Z,18.37
2019-05-03T00:56:24.125Z,16.90
2019-05-03T00:57:32.297Z,17.40
2019-05-03T00:58:54.846Z,17.00
2019-05-03T01:00:02.447Z,17.00
2019-05-03T01:01:11.826Z,17.90
2019-05-03T01:02:19.246Z,17.57
2019-05-03T01:03:26.471Z,18.20
2019-05-03T01:04:33.698Z,18.10
2019-05-03T01:05:42.366Z,19.63
2019-05-03T01:06:49.728Z,16.83
2019-05-03T01:07:57.040Z,19.07
2019-05-03T01:09:06.950Z,19.13
2019-05-03T01:10:14.933Z,17.07
2019-05-03T01:11:22.450Z,16.70
2019-05-03T01:12:29.710Z,19.00
2019-05-03T01:13:36.917Z,17.07
2019-05-03T01:14:45.809Z,16.87
2019-05-03T01:16:02.789Z,18.87
2019-05-03T01:17:11.756Z,17.33
2019-05-03T01:18:21.769Z,17.80
2019-05-03T01:19:29.164Z,16.83
2019-05-03T01:20:36.401Z,16.67
2019-05-03T01:21:43.624Z,18.50
2019-05-03T01:22:51.884Z,18.07
2019-05-03T01:23:59.199Z,17.37
2019-05-03T01:25:07.897Z,18.13
2019-05-03T01:26:15.138Z,15.67
2019-05-03T01:27:23.442Z,19.87
2019-05-03T01:28:32.371Z,16.93
2019-05-03T01:29:39.724Z,16.40
2019-05-03T01:30:46.951Z,17.60
2019-05-03T01:31:54.189Z,16.67
2019-05-03T01:33:02.845Z,16.40
2019-05-03T01:34:10.128Z,19.30
2019-05-03T01:35:17.368Z,16.47
2019-05-03T01:36:24.697Z,17.87
2019-05-03T01:37:32.143Z,17.37
2019-05-03T01:38:39.436Z,20.33
2019-05-03T01:39:46.660Z,17.93
2019-05-03T01:40:53.900Z,16.57
2019-05-03T01:42:02.701Z,15.73
2019-05-03T01:43:11.688Z,18.97
2019-05-03T01:44:19.102Z,15.93
2019-05-03T01:45:26.313Z,15.67
2019-05-03T01:46:33.538Z,16.17
2019-05-03T01:47:58.362Z,18.97
2019-05-03T01:49:12.359Z,14.60
2019-05-03T01:50:28.341Z,15.33
2019-05-03T01:51:53.134Z,17.07
2019-05-03T01:53:01.970Z,16.53
2019-05-03T01:54:09.269Z,15.00
2019-05-03T01:55:16.490Z,16.07
2019-05-03T01:56:23.715Z,16.50
2019-05-03T01:57:32.483Z,15.27
2019-05-03T01:58:41.629Z,18.93
2019-05-03T01:59:48.758Z,17.90
2019-05-03T02:01:02.973Z,16.97
2019-05-03T02:02:23.010Z,17.23
2019-05-03T02:03:41.856Z,18.47
2019-05-03T02:04:54.127Z,16.33
2019-05-03T02:06:02.425Z,17.47
2019-05-03T02:07:11.718Z,15.13
2019-05-03T02:08:19.029Z,17.07
2019-05-03T02:09:26.283Z,19.07
2019-05-03T02:10:33.514Z,17.63
2019-05-03T02:11:42.169Z,18.13
2019-05-03T02:12:49.460Z,18.07
2019-05-03T02:13:56.687Z,19.30
2019-05-03T02:15:04.139Z,16.27
2019-05-03T02:16:11.648Z,18.50
2019-05-03T02:17:19.488Z,18.33
2019-05-03T02:18:26.715Z,17.40
2019-05-03T02:19:34.333Z,16.77
2019-05-03T02:20:41.913Z,17.53
2019-05-03T02:21:49.725Z,19.43
2019-05-03T02:22:56.981Z,20.20
2019-05-03T02:24:04.210Z,17.00
2019-05-03T02:25:12.450Z,16.57
2019-05-03T02:26:19.769Z,17.43
2019-05-03T02:27:27.009Z,19.13
2019-05-03T02:28:34.235Z,18.27
2019-05-03T02:29:41.845Z,18.90
2019-05-03T02:30:49.197Z,18.67
2019-05-03T02:31:56.427Z,21.60
2019-05-03T02:33:04.332Z,18.70
2019-05-03T02:34:12.594Z,16.33
2019-05-03T02:35:22.624Z,17.07
2019-05-03T02:36:28.885Z,17.93
2019-05-03T02:37:38.180Z,19.33
2019-05-03T02:38:45.417Z,18.50
2019-05-03T02:39:57.175Z,18.10
2019-05-03T02:41:04.400Z,21.00
2019-05-03T02:42:12.060Z,18.87
2019-05-03T02:43:27.852Z,19.43
2019-05-03T02:44:35.790Z,17.47
2019-05-03T02:45:53.004Z,17.43
2019-05-03T02:47:07.879Z,18.37
2019-05-03T02:48:25.497Z,18.80
2019-05-03T02:49:39.203Z,18.77
2019-05-03T02:50:46.420Z,17.23
2019-05-03T02:51:55.459Z,18.90
2019-05-03T02:53:02.597Z,17.00
2019-05-03T02:54:10.208Z,18.10
2019-05-03T02:55:17.975Z,18.87
2019-05-03T02:56:26.240Z,19.20
2019-05-03T02:57:35.218Z,15.87
2019-05-03T02:58:42.516Z,18.33
2019-05-03T02:59:50.006Z,19.37
2019-05-03T03:01:00.693Z,19.00
2019-05-03T03:02:08.034Z,19.63
2019-05-03T03:03:16.682Z,17.00
2019-05-03T03:04:26.017Z,16.17
2019-05-03T03:05:35.271Z,16.17
2019-05-03T03:06:45.879Z,18.90
2019-05-03T03:07:55.922Z,16.67
2019-05-03T03:09:06.407Z,18.90
2019-05-03T03:10:16.169Z,16.70
2019-05-03T03:11:28.568Z,17.13
2019-05-03T03:12:36.935Z,19.53
2019-05-03T03:13:47.161Z,16.23
2019-05-03T03:14:58.680Z,18.10
2019-05-03T03:16:09.744Z,17.37
2019-05-03T03:17:21.125Z,15.80
2019-05-03T03:18:32.657Z,16.77
2019-05-03T03:19:46.082Z,17.53
2019-05-03T03:20:56.125Z,20.43
2019-05-03T03:22:07.887Z,18.27
2019-05-03T03:23:19.059Z,17.10
2019-05-03T03:24:30.976Z,15.83
2019-05-03T03:25:43.134Z,16.37
2019-05-03T03:26:56.510Z,16.87
2019-05-03T03:28:06.330Z,16.07
2019-05-03T03:29:16.511Z,18.60
2019-05-03T03:31:27.822Z,15.97
2019-05-03T03:32:38.581Z,13.37
2019-05-03T03:33:47.509Z,15.77
2019-05-03T03:35:11.895Z,15.53
2019-05-03T03:36:50.281Z,17.37
2019-05-03T03:37:26.110Z,16.57
2019-05-03T03:38:35.307Z,14.07
2019-05-03T03:39:45.804Z,14.17
2019-05-03T03:40:58.338Z,14.73
2019-05-03T03:42:05.519Z,15.00
2019-05-03T03:43:15.756Z,15.80
2019-05-03T03:44:25.377Z,15.07
2019-05-03T03:45:32.329Z,14.63
2019-05-03T03:46:41.785Z,14.37
2019-05-03T03:47:56.484Z,14.10
2019-05-03T03:49:07.087Z,14.37
2019-05-03T03:50:15.191Z,15.13
2019-05-03T03:51:27.101Z,14.13
2019-05-03T03:52:36.022Z,13.10
2019-05-03T03:53:46.660Z,14.23
2019-05-03T03:54:58.008Z,16.13
2019-05-03T03:56:05.883Z,14.80
2019-05-03T03:57:17.011Z,15.70
2019-05-03T03:58:27.043Z,13.87
2019-05-03T03:59:36.434Z,13.07
2019-05-03T04:00:46.387Z,14.73
2019-05-03T04:01:55.511Z,15.43
2019-05-03T04:03:05.842Z,14.90
2019-05-03T04:04:12.854Z,15.60
2019-05-03T04:05:20.081Z,14.23
2019-05-03T04:06:40.812Z,15.40
2019-05-03T04:07:48.377Z,12.80
2019-05-03T04:08:56.206Z,14.67
2019-05-03T04:10:05.688Z,13.47
2019-05-03T04:11:15.430Z,15.07
2019-05-03T04:12:26.447Z,14.63
2019-05-03T04:13:36.103Z,13.10
2019-05-03T04:14:56.254Z,13.93
2019-05-03T04:16:28.737Z,13.43
2019-05-03T04:17:57.657Z,12.40
2019-05-03T04:19:17.336Z,14.20
2019-05-03T04:20:27.262Z,13.07
2019-05-03T04:21:35.877Z,13.57
2019-05-03T04:22:45.286Z,14.17
2019-05-03T04:23:55.503Z,14.50
2019-05-03T04:25:01.799Z,12.23
2019-05-03T04:26:09.420Z,12.80
2019-05-03T04:27:22.858Z,11.57
2019-05-03T04:28:26.792Z,12.40
2019-05-03T04:29:38.660Z,12.43
2019-05-03T04:30:46.153Z,12.57
2019-05-03T04:31:56.509Z,11.97
2019-05-03T04:33:05.681Z,12.43
2019-05-03T04:34:11.388Z,12.33
2019-05-03T04:35:18.615Z,12.90
2019-05-03T04:36:26.387Z,12.20
2019-05-03T04:37:35.915Z,12.47
2019-05-03T04:38:45.195Z,11.10
2019-05-03T04:39:51.614Z,12.63
2019-05-03T04:40:58.843Z,10.23
2019-05-03T04:42:06.943Z,12.70
2019-05-03T04:43:16.477Z,12.50
2019-05-03T04:44:25.861Z,11.23
2019-05-03T04:45:32.365Z,14.33
2019-05-03T04:46:39.590Z,11.47
2019-05-03T04:47:46.817Z,14.47
2019-05-03T04:48:56.128Z,11.83
2019-05-03T04:50:05.391Z,10.87
2019-05-03T04:51:11.901Z,12.20
2019-05-03T04:52:19.127Z,12.67
2019-05-03T04:53:26.340Z,12.57
2019-05-03T04:55:06.559Z,12.27
2019-05-03T04:56:16.667Z,10.03
2019-05-03T04:57:39.287Z,12.03
2019-05-03T04:58:31.366Z,9.87
2019-05-03T04:59:38.624Z,13.10
2019-05-03T05:00:46.650Z,11.30
2019-05-03T05:01:56.052Z,12.47
2019-05-03T05:03:05.648Z,11.50
2019-05-03T05:04:12.329Z,11.27
2019-05-03T05:05:19.554Z,11.60
2019-05-03T05:06:26.765Z,11.03
2019-05-03T05:07:35.077Z,12.57
2019-05-03T05:08:42.358Z,12.27
2019-05-03T05:09:49.569Z,12.50
2019-05-03T05:10:56.871Z,12.30
2019-05-03T05:12:05.698Z,11.60
2019-05-03T05:13:15.511Z,12.23
2019-05-03T05:14:22.223Z,12.80
2019-05-03T05:15:29.448Z,11.27
2019-05-03T05:16:39.556Z,11.30
2019-05-03T05:17:52.528Z,12.43
2019-05-03T05:19:05.606Z,11.37
2019-05-03T05:20:20.316Z,11.57
2019-05-03T05:21:31.818Z,11.97
2019-05-03T05:22:39.074Z,10.10
2019-05-03T05:24:05.789Z,11.67
2019-05-03T05:25:16.644Z,10.93
2019-05-03T05:26:26.781Z,12.80
2019-05-03T05:27:51.397Z,10.87
2019-05-03T05:28:55.831Z,11.67
2019-05-03T05:30:04.773Z,12.33
2019-05-03T05:31:12.086Z,10.97
2019-05-03T05:32:19.338Z,11.50
2019-05-03T05:33:26.578Z,12.30
2019-05-03T05:34:34.903Z,12.00
2019-05-03T05:35:44.300Z,11.40
2019-05-03T05:36:51.621Z,12.10
2019-05-03T05:37:59.099Z,13.70
2019-05-03T05:39:10.840Z,13.07
2019-05-03T05:40:21.791Z,12.07
2019-05-03T05:41:29.015Z,12.13
2019-05-03T05:42:36.242Z,11.83
2019-05-03T05:43:44.668Z,13.43
2019-05-03T05:44:52.090Z,13.20
2019-05-03T05:45:59.301Z,11.90
2019-05-03T05:47:26.514Z,11.93
2019-05-03T05:48:38.415Z,11.60
2019-05-03T05:49:54.929Z,12.13
2019-05-03T05:51:04.309Z,11.47
2019-05-03T05:52:11.109Z,11.27
2019-05-03T05:53:18.345Z,11.77
2019-05-03T05:54:25.600Z,11.77
2019-05-03T05:55:55.023Z,13.30
2019-05-03T05:57:22.269Z,11.10
2019-05-03T05:58:44.898Z,12.60
2019-05-03T05:59:57.291Z,10.07
2019-05-03T06:01:35.616Z,12.77
2019-05-03T06:02:44.662Z,10.33
2019-05-03T06:03:51.945Z,12.47
2019-05-03T06:04:59.170Z,12.13
2019-05-03T06:06:10.393Z,14.40
2019-05-03T06:07:29.389Z,12.90
2019-05-03T06:08:58.329Z,14.17
2019-05-03T06:10:14.138Z,11.90
2019-05-03T06:11:35.821Z,12.80
2019-05-03T06:12:47.802Z,12.57
2019-05-03T06:14:24.502Z,12.23
2019-05-03T06:15:50.756Z,10.67
2019-05-03T06:17:05.485Z,11.73
2019-05-03T06:18:17.839Z,11.37
2019-05-03T06:19:35.497Z,12.93
2019-05-03T06:21:04.723Z,11.47
2019-05-03T06:22:19.277Z,12.87
2019-05-03T06:23:30.481Z,11.10
2019-05-03T06:24:41.949Z,14.00
2019-05-03T06:25:49.176Z,12.47
2019-05-03T06:27:07.820Z,12.50
2019-05-03T06:28:35.106Z,12.97
2019-05-03T06:29:42.719Z,11.70
2019-05-03T06:31:20.260Z,12.57
2019-05-03T06:32:34.547Z,10.97
2019-05-03T06:33:41.811Z,14.60
2019-05-03T06:34:49.040Z,11.87
2019-05-03T06:35:56.253Z,11.93
2019-05-03T06:37:06.639Z,10.87
2019-05-03T06:38:15.229Z,11.90
2019-05-03T06:39:24.738Z,14.33
2019-05-03T06:40:31.605Z,12.80
2019-05-03T06:41:38.847Z,13.37
2019-05-03T06:42:54.524Z,10.77
2019-05-03T06:43:55.297Z,13.17
2019-05-03T06:45:08.283Z,12.03
2019-05-03T06:46:11.457Z,14.00
2019-05-03T06:47:18.667Z,13.43
2019-05-03T06:48:28.114Z,13.93
2019-05-03T06:49:39.198Z,12.27
2019-05-03T06:50:45.428Z,13.13
2019-05-03T06:51:54.619Z,14.43
2019-05-03T06:53:05.408Z,12.67
2019-05-03T06:54:10.818Z,13.47
2019-05-03T06:55:18.056Z,12.30
2019-05-03T06:56:29.145Z,11.57
2019-05-03T06:57:35.410Z,10.83
2019-05-03T06:58:44.761Z,13.43
2019-05-03T07:00:11.744Z,10.53
2019-05-03T07:01:37.934Z,8.43
2019-05-03T07:02:54.680Z,10.43
2019-05-03T07:04:06.517Z,9.43
2019-05-03T07:05:25.084Z,9.63
2019-05-03T07:06:51.337Z,9.93
2019-05-03T07:08:05.199Z,9.77
2019-05-03T07:09:25.007Z,9.77
2019-05-03T07:10:45.082Z,10.23
2019-05-03T07:11:52.292Z,9.13
2019-05-03T07:13:00.205Z,12.30
2019-05-03T07:14:10.295Z,9.67
2019-05-03T07:15:17.520Z,10.50
2019-05-03T07:16:25.359Z,10.23
2019-05-03T07:17:32.753Z,11.13
2019-05-03T07:18:39.982Z,10.93
2019-05-03T07:19:47.205Z,10.37
2019-05-03T07:20:57.372Z,13.53
2019-05-03T07:22:05.100Z,10.93
2019-05-03T07:23:12.380Z,9.77
2019-05-03T07:24:19.585Z,10.60
2019-05-03T07:25:27.013Z,10.13
2019-05-03T07:26:34.490Z,9.40
2019-05-03T07:27:41.753Z,11.37
2019-05-03T07:28:50.139Z,11.80
2019-05-03T07:29:57.496Z,9.27
2019-05-03T07:31:04.927Z,11.20
2019-05-03T07:32:12.155Z,8.73
2019-05-03T07:33:30.800Z,9.33
2019-05-03T07:34:39.014Z,9.60
2019-05-03T07:35:46.227Z,9.30
2019-05-03T07:36:55.419Z,9.30
2019-05-03T07:38:02.372Z,8.40
2019-05-03T07:39:10.273Z,9.40
2019-05-03T07:40:17.500Z,9.63
2019-05-03T07:41:27.167Z,10.67
2019-05-03T07:42:34.696Z,10.30
2019-05-03T07:43:44.998Z,9.67
2019-05-03T07:44:52.089Z,9.80
2019-05-03T07:45:59.324Z,9.20
2019-05-03T07:47:06.615Z,9.00
2019-05-03T07:48:15.087Z,8.80
2019-05-03T07:49:22.449Z,10.87
2019-05-03T07:50:29.673Z,13.53
2019-05-03T07:51:36.901Z,11.70
2019-05-03T07:52:45.107Z,11.57
2019-05-03T07:53:52.432Z,8.40
2019-05-03T07:55:00.829Z,9.47
2019-05-03T07:56:11.718Z,10.63
2019-05-03T07:57:30.013Z,8.57
2019-05-03T07:58:37.461Z,8.30
2019-05-03T07:59:45.533Z,8.07
2019-05-03T08:01:05.856Z,9.63
2019-05-03T08:02:05.569Z,7.90
2019-05-03T08:03:15.298Z,10.23
2019-05-03T08:04:23.134Z,8.13
2019-05-03T08:05:31.111Z,7.77
2019-05-03T08:06:38.352Z,8.87
2019-05-03T08:07:46.248Z,8.90
2019-05-03T08:08:54.561Z,9.33
2019-05-03T08:10:01.844Z,7.73
2019-05-03T08:11:09.130Z,8.47
2019-05-03T08:12:16.355Z,8.30
2019-05-03T08:13:25.332Z,7.93
2019-05-03T08:14:32.520Z,8.30
2019-05-03T08:15:39.727Z,7.70
2019-05-03T08:16:46.942Z,7.83
2019-05-03T08:17:55.443Z,7.80
2019-05-03T08:19:04.768Z,7.53
2019-05-03T08:20:11.975Z,8.07
2019-05-03T08:21:19.202Z,8.27
2019-05-03T08:22:26.400Z,7.50
2019-05-03T08:23:35.262Z,8.33
2019-05-03T08:24:42.514Z,7.87
2019-05-03T08:25:50.950Z,7.97
2019-05-03T08:26:59.381Z,7.33
2019-05-03T08:28:06.789Z,7.60
2019-05-03T08:29:18.505Z,7.77
2019-05-03T08:30:29.492Z,7.03
2019-05-03T08:31:50.459Z,7.50
2019-05-03T08:33:06.165Z,6.77
2019-05-03T08:34:30.762Z,7.23
2019-05-03T08:35:40.749Z,8.03
2019-05-03T08:37:16.176Z,9.07
2019-05-03T08:38:23.403Z,7.27
2019-05-03T08:39:31.097Z,7.50
2019-05-03T08:40:45.450Z,8.13
2019-05-03T08:42:04.761Z,7.23
2019-05-03T08:43:12.125Z,8.53
2019-05-03T08:44:19.379Z,9.03
2019-05-03T08:45:26.622Z,7.90
2019-05-03T08:46:35.580Z,8.00
2019-05-03T08:47:44.860Z,7.43
2019-05-03T08:48:51.794Z,6.87
2019-05-03T08:49:59.004Z,8.00
2019-05-03T08:51:06.244Z,7.80
2019-05-03T08:52:15.533Z,7.77
2019-05-03T08:53:22.363Z,7.33
2019-05-03T08:54:29.587Z,8.60
2019-05-03T08:55:36.798Z,8.03
2019-05-03T08:56:45.125Z,7.07
2019-05-03T08:57:52.390Z,6.13
2019-05-03T08:58:59.602Z,6.67
2019-05-03T09:00:09.707Z,6.40
2019-05-03T09:01:16.970Z,7.23
2019-05-03T09:02:25.790Z,7.23
2019-05-03T09:03:36.263Z,7.03
2019-05-03T09:04:43.227Z,7.10
2019-05-03T09:05:51.171Z,6.70
2019-05-03T09:06:58.375Z,6.90
2019-05-03T09:08:05.926Z,6.27
2019-05-03T09:09:25.455Z,6.60
2019-05-03T09:10:38.896Z,5.80
2019-05-03T09:11:46.119Z,6.10
2019-05-03T09:13:25.105Z,5.63
2019-05-03T09:14:42.453Z,4.97
2019-05-03T09:15:44.592Z,4.23
2019-05-03T09:16:51.630Z,4.00
2019-05-03T09:17:58.932Z,3.77
2019-05-03T09:19:06.171Z,3.60
2019-05-03T09:20:15.457Z,3.27
2019-05-03T09:21:22.439Z,3.50
2019-05-03T09:22:29.665Z,3.23
2019-05-03T09:23:36.905Z,3.50
2019-05-03T09:24:45.514Z,3.33
2019-05-03T09:25:54.786Z,3.40
2019-05-03T09:27:01.811Z,3.73
2019-05-03T09:28:09.244Z,4.00
2019-05-03T09:29:16.566Z,3.67
2019-05-03T09:30:25.136Z,3.70
2019-05-03T09:31:32.486Z,3.17
2019-05-03T09:32:39.727Z,3.00
2019-05-03T09:33:46.935Z,3.27
2019-05-03T09:34:55.076Z,3.57
2019-05-03T09:36:02.465Z,3.53
2019-05-03T09:37:09.680Z,4.67
2019-05-03T09:38:16.903Z,3.47
2019-05-03T09:39:24.630Z,3.37
2019-05-03T09:40:31.969Z,4.00
2019-05-03T09:41:39.195Z,3.13
2019-05-03T09:42:46.376Z,3.20
2019-05-03T09:43:55.457Z,3.00
2019-05-03T09:45:04.839Z,3.13
2019-05-03T09:46:12.048Z,3.40
2019-05-03T09:47:19.288Z,3.17
2019-05-03T09:48:26.501Z,3.23
2019-05-03T09:49:34.759Z,2.93
2019-05-03T09:50:42.105Z,3.00
2019-05-03T09:51:49.344Z,3.20
2019-05-03T09:52:56.645Z,2.80
2019-05-03T09:54:10.549Z,3.30
2019-05-03T09:55:25.259Z,3.00
2019-05-03T09:56:56.092Z,2.70
2019-05-03T09:58:00.116Z,2.13
2019-05-03T09:59:07.340Z,2.30
2019-05-03T10:00:16.822Z,2.17
2019-05-03T10:01:25.577Z,2.00
2019-05-03T10:02:35.210Z,2.20
2019-05-03T10:03:41.990Z,2.10
2019-05-03T10:04:49.191Z,2.93
2019-05-03T10:05:56.396Z,2.43
2019-05-03T10:07:03.607Z,2.53
2019-05-03T10:08:10.851Z,1.40
2019-05-03T10:09:18.128Z,1.13
2019-05-03T10:10:25.394Z,1.00
2019-05-03T10:11:35.013Z,0.90
2019-05-03T10:12:41.557Z,1.20
2019-05-03T10:13:49.030Z,1.10
2019-05-03T10:14:56.364Z,1.60
2019-05-03T10:16:05.812Z,0.73
2019-05-03T10:17:31.445Z,1.00
2019-05-03T10:18:39.090Z,2.10
2019-05-03T10:19:46.317Z,0.90
2019-05-03T10:20:55.890Z,0.80
2019-05-03T10:22:04.461Z,1.80
2019-05-03T10:23:33.198Z,1.20
2019-05-03T10:24:40.442Z,0.90
2019-05-03T10:25:47.680Z,1.27
2019-05-03T10:26:55.280Z,1.27
2019-05-03T10:28:02.539Z,1.00
2019-05-03T10:29:10.516Z,1.10
2019-05-03T10:30:26.428Z,1.20
2019-05-03T10:31:41.393Z,1.17
2019-05-03T10:32:53.390Z,0.97
2019-05-03T10:34:02.405Z,1.20
2019-05-03T10:35:11.248Z,1.33
2019-05-03T10:36:18.533Z,1.30
2019-05-03T10:37:35.959Z,1.40
2019-05-03T10:38:45.655Z,1.30
2019-05-03T10:39:52.200Z,1.77
2019-05-03T10:40:59.548Z,1.27
2019-05-03T10:42:07.898Z,1.80
2019-05-03T10:43:15.303Z,1.37
2019-05-03T10:44:24.613Z,1.70
2019-05-03T10:45:31.929Z,1.70
2019-05-03T10:46:39.234Z,1.70
2019-05-03T10:47:46.456Z,1.30
2019-05-03T10:48:55.613Z,1.30
2019-05-03T10:50:04.578Z,2.33
2019-05-03T10:51:12.188Z,1.20
2019-05-03T10:52:21.426Z,1.50
2019-05-03T10:53:40.474Z,2.20
2019-05-03T10:54:47.695Z,1.33
2019-05-03T10:56:13.896Z,1.60
2019-05-03T10:57:24.831Z,2.00
2019-05-03T10:58:35.617Z,1.63
2019-05-03T10:59:44.758Z,1.20
2019-05-03T11:00:56.018Z,1.60
2019-05-03T11:02:39.504Z,2.30
2019-05-03T11:03:46.765Z,1.67
2019-05-03T11:04:54.875Z,1.60
2019-05-03T11:06:05.511Z,1.70
2019-05-03T11:07:14.749Z,1.37
2019-05-03T11:08:21.760Z,1.57
2019-05-03T11:09:29.001Z,1.57
2019-05-03T11:10:36.254Z,1.80
2019-05-03T11:11:45.171Z,1.77
2019-05-03T11:12:52.401Z,1.30
2019-05-03T11:13:59.630Z,1.70
2019-05-03T11:15:07.888Z,1.60
2019-05-03T11:16:16.967Z,1.83
2019-05-03T11:17:25.608Z,1.53
2019-05-03T11:18:34.553Z,1.87
2019-05-03T11:19:42.361Z,1.63
2019-05-03T11:20:49.585Z,1.60
2019-05-03T11:21:56.840Z,1.60
2019-05-03T11:23:06.056Z,1.90
2019-05-03T11:24:14.713Z,1.57
2019-05-03T11:25:22.148Z,1.80
2019-05-03T11:26:29.360Z,2.17
2019-05-03T11:27:55.912Z,1.60
2019-05-03T11:29:04.979Z,1.60
2019-05-03T11:30:15.634Z,1.80
2019-05-03T11:31:40.227Z,1.37
2019-05-03T11:33:09.129Z,1.97
2019-05-03T11:34:18.782Z,1.60
2019-05-03T11:35:32.315Z,1.70
2019-05-03T11:36:47.092Z,1.40
2019-05-03T11:38:16.718Z,1.50
2019-05-03T11:39:25.171Z,1.40
2019-05-03T11:40:34.485Z,1.10
2019-05-03T11:41:45.132Z,1.57
2019-05-03T11:42:55.454Z,2.40
2019-05-03T11:44:21.602Z,2.00
2019-05-03T11:45:28.798Z,1.93
2019-05-03T11:46:36.022Z,1.63
2019-05-03T11:47:45.446Z,1.70
2019-05-03T11:48:52.175Z,1.67
2019-05-03T11:49:59.544Z,1.70
2019-05-03T11:51:06.793Z,1.60
2019-05-03T11:52:15.966Z,1.63
2019-05-03T11:53:25.187Z,2.37
2019-05-03T11:54:35.741Z,1.80
2019-05-03T11:55:42.746Z,2.30
2019-05-03T11:56:50.378Z,2.00
2019-05-03T11:57:57.582Z,1.70
2019-05-03T11:59:05.320Z,2.43
2019-05-03T12:00:15.204Z,1.97
2019-05-03T12:01:28.021Z,2.43
2019-05-03T12:02:51.286Z,2.17
2019-05-03T12:04:04.949Z,2.17
2019-05-03T12:05:24.464Z,1.80
2019-05-03T12:06:31.807Z,1.70
2019-05-03T12:07:40.166Z,1.67
2019-05-03T12:08:47.505Z,2.07
2019-05-03T12:09:54.752Z,1.80
2019-05-03T12:11:02.001Z,1.50
2019-05-03T12:12:10.862Z,1.70
2019-05-03T12:13:36.445Z,2.33
2019-05-03T12:14:45.327Z,1.63
2019-05-03T12:15:52.643Z,1.67
2019-05-03T12:17:17.976Z,1.93
2019-05-03T12:18:16.307Z,2.03
2019-05-03T12:19:29.990Z,2.00
2019-05-03T12:20:34.129Z,1.93
2019-05-03T12:21:41.949Z,1.80
2019-05-03T12:22:50.217Z,1.60
2019-05-03T12:23:58.911Z,2.57
2019-05-03T12:25:10.085Z,1.70
2019-05-03T12:26:17.320Z,1.63
2019-05-03T12:27:25.983Z,2.13
2019-05-03T12:28:35.221Z,2.57
2019-05-03T12:29:42.175Z,2.43
2019-05-03T12:30:49.580Z,2.03
2019-05-03T12:31:56.854Z,2.27
2019-05-03T12:33:05.962Z,2.00
2019-05-03T12:34:13.120Z,2.20
2019-05-03T12:35:20.338Z,1.97
2019-05-03T12:36:28.353Z,2.03
2019-05-03T12:37:37.257Z,2.40
2019-05-03T12:38:44.484Z,2.20
2019-05-03T12:39:54.787Z,2.47
2019-05-03T12:41:01.815Z,2.63
2019-05-03T12:42:09.630Z,2.43
2019-05-03T12:43:16.854Z,2.47
2019-05-03T12:44:24.670Z,2.10
2019-05-03T12:45:32.116Z,2.67
2019-05-03T12:46:39.342Z,2.17
2019-05-03T12:47:46.585Z,2.90
2019-05-03T12:48:53.809Z,2.70
2019-05-03T12:50:01.108Z,2.17
2019-05-03T12:51:08.914Z,2.70
2019-05-03T12:52:18.275Z,3.30
2019-05-03T12:53:25.925Z,2.57
2019-05-03T12:54:35.319Z,2.90
2019-05-03T12:55:42.085Z,2.90
2019-05-03T12:56:49.297Z,3.10
2019-05-03T12:57:56.508Z,3.17
2019-05-03T12:59:09.373Z,3.23
2019-05-03T13:00:33.811Z,3.30
2019-05-03T13:02:15.564Z,3.43
2019-05-03T13:03:34.963Z,2.77
2019-05-03T13:04:44.565Z,3.17
2019-05-03T13:05:51.410Z,3.30
2019-05-03T13:07:07.565Z,3.53
2019-05-03T13:08:39.905Z,3.10
2019-05-03T13:09:47.134Z,3.40
2019-05-03T13:10:55.696Z,3.77
2019-05-03T13:12:05.575Z,3.10
2019-05-03T13:13:14.644Z,3.10
2019-05-03T13:14:22.135Z,3.07
2019-05-03T13:15:29.320Z,3.47
2019-05-03T13:16:36.592Z,3.03
2019-05-03T13:17:44.638Z,4.07
2019-05-03T13:18:51.930Z,3.17
2019-05-03T13:19:59.203Z,3.10
2019-05-03T13:21:06.519Z,5.17
2019-05-03T13:22:13.818Z,3.33
2019-05-03T13:23:21.043Z,3.50
2019-05-03T13:24:28.300Z,3.50
2019-05-03T13:25:35.724Z,3.47
2019-05-03T13:26:42.976Z,3.90
2019-05-03T13:27:50.187Z,3.80
2019-05-03T13:28:59.671Z,3.77
2019-05-03T13:30:08.179Z,3.70
2019-05-03T13:31:16.164Z,3.80
2019-05-03T13:32:23.591Z,3.50
2019-05-03T13:33:30.805Z,3.93
2019-05-03T13:34:38.043Z,3.73
2019-05-03T13:35:45.241Z,3.27
2019-05-03T13:36:52.482Z,5.13
2019-05-03T13:37:59.721Z,4.10
2019-05-03T13:39:14.049Z,4.90
2019-05-03T13:40:19.036Z,4.00
2019-05-03T13:41:26.247Z,4.03
2019-05-03T13:42:35.088Z,3.47
2019-05-03T13:43:42.486Z,4.03
2019-05-03T13:44:49.704Z,3.90
2019-05-03T13:45:56.910Z,3.80
2019-05-03T13:47:04.586Z,4.07
2019-05-03T13:48:12.364Z,4.13
2019-05-03T13:49:19.664Z,3.60
2019-05-03T13:50:26.876Z,4.00
2019-05-03T13:51:35.789Z,4.50
2019-05-03T13:52:45.344Z,4.07
2019-05-03T13:53:54.896Z,4.00
2019-05-03T13:55:01.706Z,3.50
2019-05-03T13:56:09.172Z,4.10
2019-05-03T13:57:16.388Z,3.80
2019-05-03T13:58:23.598Z,4.20
2019-05-03T13:59:30.796Z,3.33
2019-05-03T14:00:38.034Z,3.43
2019-05-03T14:01:45.261Z,4.10
2019-05-03T14:02:52.455Z,4.00
2019-05-03T14:03:59.678Z,3.83
2019-05-03T14:05:07.535Z,3.77
2019-05-03T14:06:14.855Z,3.67
2019-05-03T14:07:22.097Z,5.17
2019-05-03T14:08:29.319Z,4.10
2019-05-03T14:09:36.549Z,4.03
2019-05-03T14:10:45.537Z,3.77
2019-05-03T14:11:52.994Z,3.80
2019-05-03T14:13:00.220Z,3.73
2019-05-03T14:14:07.477Z,4.47
2019-05-03T14:15:16.080Z,4.33
2019-05-03T14:16:23.367Z,4.50
2019-05-03T14:17:30.593Z,3.73
2019-05-03T14:18:41.064Z,3.60
2019-05-03T14:19:46.770Z,3.70
2019-05-03T14:21:14.958Z,4.17
2019-05-03T14:22:24.875Z,4.33
2019-05-03T14:23:34.681Z,3.43
2019-05-03T14:24:41.943Z,3.20
2019-05-03T14:25:49.200Z,3.17
2019-05-03T14:26:56.713Z,3.80
2019-05-03T14:28:05.436Z,3.23
2019-05-03T14:29:14.934Z,3.83
2019-05-03T14:30:22.591Z,3.30
2019-05-03T14:31:29.801Z,3.57
2019-05-03T14:32:37.032Z,3.53
2019-05-03T14:33:45.258Z,4.23
2019-05-03T14:34:54.759Z,4.40
2019-05-03T14:36:02.129Z,4.13
2019-05-03T14:37:09.385Z,3.97
2019-05-03T14:38:16.611Z,3.67
2019-05-03T14:39:25.319Z,4.00
2019-05-03T14:43:37.725Z,3.37
2019-05-03T14:44:44.967Z,3.90
2019-05-03T14:45:52.208Z,3.70
2019-05-03T14:46:59.541Z,4.00
2019-05-03T14:48:06.856Z,4.53
2019-05-03T14:49:14.852Z,3.57
2019-05-03T14:50:22.283Z,3.50
2019-05-03T14:51:29.642Z,3.50
2019-05-03T14:52:37.039Z,3.80
2019-05-03T14:53:45.328Z,3.50
2019-05-03T14:54:55.013Z,4.87
2019-05-03T14:56:11.542Z,4.57
2019-05-03T14:57:25.736Z,3.37
2019-05-03T14:59:03.649Z,4.07
2019-05-03T15:00:19.729Z,4.10
2019-05-03T15:01:35.724Z,3.83
2019-05-03T15:03:04.840Z,5.63
2019-05-03T15:04:12.102Z,3.70
2019-05-03T15:05:19.341Z,4.50
2019-05-03T15:06:26.597Z,4.00
2019-05-03T15:07:35.182Z,3.67
2019-05-03T15:08:42.506Z,3.70
2019-05-03T15:09:49.732Z,5.00
2019-05-03T15:10:56.948Z,3.93
2019-05-03T15:12:05.331Z,4.30
2019-05-03T15:13:12.926Z,4.50
2019-05-03T15:14:20.166Z,4.90
2019-05-03T15:15:28.925Z,4.20
2019-05-03T15:16:36.329Z,3.83
2019-05-03T15:17:45.584Z,4.77
2019-05-03T15:18:52.465Z,4.63
2019-05-03T15:19:59.677Z,4.13
2019-05-03T15:21:06.885Z,4.93
2019-05-03T15:22:14.634Z,6.63
2019-05-03T15:23:22.055Z,4.87